Time;durP1;ratioP1;P1;durP2;ratioP2;P2;SDS_P1;SDS_P2;PMS_P1;PMS_P2;Temp;Humidity;BMP_temperature;BMP_pressure;BME280_temperature;BME280_humidity;BME280_pressure;Samples;Min_cycle;Max_cycle;Signal;HPM_P1;HPM_P2
2023/01/02 00:01:42;;;;;;;4.72;2.00;;;;;;;5.92;78.14;98101.09;4768118;30;20542;-94
2023/01/02 00:04:08;;;;;;;2.50;1.95;;;;;;;5.99;77.63;98113.09;4759640;30;20047;-91
2023/01/02 00:06:36;;;;;;;3.30;1.80;;;;;;;6.25;76.49;98227.19;4765916;30;20079;-90
2023/01/02 00:09:04;;;;;;;2.25;1.70;;;;;;;6.04;77.67;98205.22;4769074;30;20096;-93
2023/01/02 00:11:32;;;;;;;2.53;1.45;;;;;;;5.56;76.34;98150.78;4770433;30;20043;-92
2023/01/02 00:13:59;;;;;;;1.80;1.40;;;;;;;5.59;76.49;98150.97;4770614;30;20046;-94
2023/01/02 00:16:25;;;;;;;2.20;1.40;;;;;;;5.22;75.49;98125.03;4757577;30;20406;-94
2023/01/02 00:18:53;;;;;;;2.38;1.38;;;;;;;5.67;75.46;98233.50;4777625;30;20393;-92
2023/01/02 00:21:19;;;;;;;2.10;1.40;;;;;;;5.44;75.45;98248.94;4766066;30;20036;-92
2023/01/02 00:23:45;;;;;;;2.80;1.27;;;;;;;4.93;75.69;98185.84;4766125;29;20119;-95
2023/01/02 00:26:11;;;;;;;1.90;1.40;;;;;;;5.24;75.82;98242.03;4777892;29;20080;-94
2023/01/02 00:28:38;;;;;;;2.40;1.13;;;;;;;4.94;75.06;98209.09;4753095;30;20043;-94
2023/01/02 00:31:12;;;;;;;1.17;1.08;;;;;;;4.80;75.18;98223.72;4775388;29;20057;-93
2023/01/02 00:33:38;;;;;;;1.67;1.15;;;;;;;4.78;75.05;98218.63;4762339;30;20047;-92
2023/01/02 00:36:09;;;;;;;2.42;1.67;;;;;;;4.65;75.08;98208.59;4763875;30;20051;-93
2023/01/02 00:38:36;;;;;;;4.55;1.20;;;;;;;4.91;75.53;98284.72;4753392;30;20098;-94
2023/01/02 00:41:03;;;;;;;2.60;1.40;;;;;;;4.74;76.20;98276.41;4747907;30;20048;-93
2023/01/02 00:43:29;;;;;;;1.80;1.20;;;;;;;4.71;75.56;98286.72;4765764;30;20051;-93
2023/01/02 00:45:55;;;;;;;1.38;1.20;;;;;;;4.50;75.34;98269.22;4769541;29;20042;-93
2023/01/02 00:48:21;;;;;;;1.48;1.15;;;;;;;4.80;75.77;98318.47;4764759;30;20024;-93
2023/01/02 00:50:48;;;;;;;1.95;1.30;;;;;;;5.00;75.71;98369.56;4748730;30;20054;-92
2023/01/02 00:53:16;;;;;;;1.50;1.10;;;;;;;4.53;75.32;98314.63;4747980;30;20075;-93
2023/01/02 00:55:45;;;;;;;1.02;0.93;;;;;;;4.25;75.67;98319.19;4745378;30;20062;-91
2023/01/02 00:58:12;;;;;;;1.20;1.10;;;;;;;4.48;75.94;98353.41;4736138;30;20039;-92
2023/01/02 01:00:38;;;;;;;1.95;1.10;;;;;;;4.30;75.17;98329.91;4758039;29;20096;-93
2023/01/02 01:03:05;;;;;;;1.07;0.93;;;;;;;4.86;75.46;98412.06;4769341;29;20043;-91
2023/01/02 01:05:31;;;;;;;2.38;0.93;;;;;;;4.48;75.16;98361.53;4749223;29;20047;-93
2023/01/02 01:07:59;;;;;;;1.13;1.00;;;;;;;4.62;75.11;98385.94;4749026;30;20051;-93
2023/01/02 01:10:26;;;;;;;1.08;0.98;;;;;;;4.41;75.24;98380.06;4744878;30;20051;-93
2023/01/02 01:12:52;;;;;;;2.63;1.40;;;;;;;4.81;75.51;98399.44;4752041;30;20137;-93
2023/01/02 01:15:18;;;;;;;1.58;1.30;;;;;;;4.65;74.82;98387.25;4756777;30;20733;-94
2023/01/02 01:17:44;;;;;;;1.80;1.20;;;;;;;4.55;74.60;98398.25;4776216;29;20053;-94
2023/01/02 01:20:10;;;;;;;4.55;1.70;;;;;;;4.54;75.08;98405.56;4761951;30;20043;-93
2023/01/02 01:22:37;;;;;;;2.03;1.60;;;;;;;4.66;75.33;98422.13;4775139;29;20039;-92
2023/01/02 01:25:03;;;;;;;1.90;1.60;;;;;;;4.37;74.81;98372.81;4747023;29;20134;-93
2023/01/02 01:27:29;;;;;;;2.13;1.52;;;;;;;4.84;74.76;98446.78;4763235;29;20089;-93
2023/01/02 01:29:56;;;;;;;1.80;1.60;;;;;;;4.45;74.51;98383.78;4761252;29;20042;-94
2023/01/02 01:32:22;;;;;;;2.45;1.65;;;;;;;4.94;74.12;98446.59;4773957;30;20533;-93
2023/01/02 01:34:48;;;;;;;1.52;1.40;;;;;;;4.81;73.49;98423.78;4757638;30;20062;-92
2023/01/02 01:37:14;;;;;;;2.65;1.80;;;;;;;4.81;73.84;98425.69;4774717;30;20506;-91
2023/01/02 01:39:40;;;;;;;2.30;1.70;;;;;;;4.53;73.63;98385.00;4757126;30;20057;-95
2023/01/02 01:42:11;;;;;;;3.13;1.77;;;;;;;4.87;73.39;98460.53;4744424;30;20047;-94
2023/01/02 01:44:48;;;;;;;2.30;1.70;;;;;;;5.06;73.69;98508.41;4756527;30;20048;-93
2023/01/02 01:47:33;;;;;;;3.25;1.58;;;;;;;5.05;73.67;98514.94;4756250;30;20083;-93
2023/01/02 01:50:06;;;;;;;2.05;1.42;;;;;;;4.17;73.82;98428.03;4782450;30;20105;-94
2023/01/02 01:52:37;;;;;;;2.72;1.58;;;;;;;3.97;73.80;98415.59;4727737;30;20052;-93
2023/01/02 01:55:21;;;;;;;1.92;1.40;;;;;;;4.38;74.53;98512.44;4757007;30;20055;-93
2023/01/02 01:58:13;;;;;;;2.95;1.50;;;;;;;3.93;74.26;98455.94;4763979;29;20046;-93
2023/01/02 02:00:41;;;;;;;1.65;1.25;;;;;;;3.94;74.24;98441.34;4750991;29;20047;-93
2023/01/02 02:03:15;;;;;;;1.40;1.20;;;;;;;4.45;74.27;98534.50;4767105;30;20039;-94
2023/01/02 02:05:44;;;;;;;1.25;1.13;;;;;;;4.43;73.98;98540.19;4758363;30;20067;-94
2023/01/02 02:08:59;;;;;;;1.48;1.13;;;;;;;4.14;74.65;98525.97;4755171;30;20576;-92
2023/01/02 02:11:27;;;;;;;2.10;1.05;;;;;;;3.91;74.33;98466.25;4749189;29;20077;-94
2023/01/02 02:13:58;;;;;;;1.30;1.20;;;;;;;4.69;74.16;98597.50;4771979;29;20043;-93
2023/01/02 02:16:29;;;;;;;1.40;1.00;;;;;;;4.18;73.94;98517.00;4750590;30;20040;-93
2023/01/02 02:19:36;;;;;;;0.80;0.80;;;;;;;4.34;73.99;98563.63;4763072;29;20047;-92
2023/01/02 02:22:15;;;;;;;0.80;0.80;;;;;;;4.51;73.54;98592.88;4759368;30;20043;-96
2023/01/02 02:25:08;;;;;;;5.45;0.98;;;;;;;4.53;73.59;98598.81;4774503;30;20047;-96
2023/01/02 02:28:04;;;;;;;1.27;1.02;;;;;;;4.19;73.53;98583.53;4760831;30;20047;-93
2023/01/02 02:30:55;;;;;;;1.27;1.10;;;;;;;4.37;73.89;98636.09;4759706;30;20108;-94
2023/01/02 02:33:57;;;;;;;1.23;1.00;;;;;;;4.50;73.97;98631.84;4755624;30;20146;-96
2023/01/02 02:36:35;;;;;;;2.50;1.10;;;;;;;4.46;73.40;98631.63;4765462;30;20051;-95
2023/01/02 02:39:10;;;;;;;2.15;1.05;;;;;;;3.84;73.13;98544.22;4763528;30;20055;-93
2023/01/02 02:42:01;;;;;;;1.05;0.80;;;;;;;4.25;73.12;98651.91;4742872;30;20079;-95
2023/01/02 02:44:49;;;;;;;1.00;0.95;;;;;;;4.05;73.55;98654.84;4769012;29;20042;-95
2023/01/02 02:47:47;;;;;;;0.80;0.80;;;;;;;3.51;73.79;98581.03;4789355;29;20043;-95
2023/01/02 02:50:34;;;;;;;1.77;0.85;;;;;;;3.50;73.17;98576.69;4772394;30;20075;-94
2023/01/02 02:53:13;;;;;;;0.70;0.70;;;;;;;3.32;72.64;98577.41;4801514;29;20046;-94
2023/01/02 02:55:46;;;;;;;1.40;0.70;;;;;;;3.21;72.33;98587.47;4743957;30;20060;-96
2023/01/02 02:58:13;;;;;;;0.70;0.70;;;;;;;3.05;72.70;98579.50;4745794;30;20086;-96
2023/01/02 03:00:40;;;;;;;0.55;0.50;;;;;;;3.48;72.60;98654.53;4763155;30;20071;-94
2023/01/02 03:03:21;;;;;;;0.70;0.68;;;;;;;3.54;72.69;98658.78;4754041;30;20052;-95
2023/01/02 03:06:16;;;;;;;1.02;0.90;;;;;;;3.32;72.13;98602.53;4758587;30;20040;-96
2023/01/02 03:08:49;;;;;;;2.63;0.68;;;;;;;3.61;71.70;98669.28;4748529;30;20059;-95
2023/01/02 03:11:15;;;;;;;0.40;0.40;;;;;;;3.25;71.26;98620.97;4751160;30;20044;-95
2023/01/02 03:14:17;;;;;;;0.52;0.52;;;;;;;4.03;71.68;98751.66;4734237;29;20028;-95
2023/01/02 03:16:47;;;;;;;0.60;0.57;;;;;;;3.16;71.82;98660.44;4752709;29;20056;-95
2023/01/02 03:19:17;;;;;;;0.55;0.50;;;;;;;3.90;71.86;98767.44;4733906;30;20040;-96
2023/01/02 03:21:49;;;;;;;0.77;0.65;;;;;;;3.93;71.92;98764.19;4726104;30;20544;-96
2023/01/02 03:24:19;;;;;;;0.93;0.60;;;;;;;3.16;71.27;98668.56;4742558;30;20537;-95
2023/01/02 03:27:01;;;;;;;0.43;0.43;;;;;;;3.34;71.28;98715.69;4740256;30;20043;-95
2023/01/02 03:29:33;;;;;;;0.57;0.57;;;;;;;3.26;71.67;98720.59;4750656;30;20063;-95
2023/01/02 03:32:02;;;;;;;1.80;0.70;;;;;;;2.94;72.10;98695.94;4717230;30;20120;-95
2023/01/02 03:34:33;;;;;;;0.90;0.65;;;;;;;2.81;72.27;98702.75;4755807;30;20044;-96
2023/01/02 03:37:10;;;;;;;1.40;0.70;;;;;;;3.14;72.05;98732.81;4744783;30;20113;-95
2023/01/02 03:39:44;;;;;;;1.25;0.82;;;;;;;3.17;72.19;98756.56;4745159;30;20092;-93
2023/01/02 03:42:18;;;;;;;0.75;0.60;;;;;;;2.75;70.86;98730.84;4743899;30;20040;-94
2023/01/02 03:45:02;;;;;;;2.17;0.80;;;;;;;2.87;70.57;98728.63;4714983;30;20063;-96
2023/01/02 03:47:41;;;;;;;0.70;0.70;;;;;;;2.92;70.89;98746.72;4737831;30;20044;-95
2023/01/02 03:50:14;;;;;;;0.50;0.50;;;;;;;3.05;70.28;98784.72;4758815;30;20052;-95
2023/01/02 03:52:41;;;;;;;1.17;0.70;;;;;;;3.31;70.63;98819.69;4737290;29;20066;-94
2023/01/02 03:55:08;;;;;;;1.38;0.65;;;;;;;2.88;70.87;98781.56;4765982;29;20031;-94
2023/01/02 03:57:55;;;;;;;3.60;0.73;;;;;;;2.82;70.83;98794.25;4772863;29;20070;-96
2023/01/02 04:00:22;;;;;;;0.70;0.70;;;;;;;3.09;70.61;98824.69;4781583;29;20042;-94
2023/01/02 04:02:54;;;;;;;;;;;;;;;3.30;70.90;98867.50;4793445;29;20028;-95
2023/01/02 04:05:30;;;;;;;1.40;1.00;;;;;;;3.21;70.77;98855.69;4796128;29;19924;-94
2023/01/02 04:07:59;;;;;;;0.60;0.55;;;;;;;2.75;70.82;98811.81;4778222;30;20023;-94
2023/01/02 04:10:28;;;;;;;1.17;0.52;;;;;;;3.10;71.12;98873.00;4743046;30;20059;-94
2023/01/02 04:13:00;;;;;;;1.73;0.98;;;;;;;2.82;70.70;98828.53;4756777;30;20039;-95
2023/01/02 04:15:32;;;;;;;1.98;0.98;;;;;;;2.77;70.72;98842.84;4743591;30;20055;-95
2023/01/02 04:18:21;;;;;;;1.77;0.88;;;;;;;2.92;70.85;98893.28;4786786;29;20048;-96
2023/01/02 04:20:50;;;;;;;0.60;0.60;;;;;;;2.29;71.00;98783.03;4797872;29;20399;-94
2023/01/02 04:23:33;;;;;;;1.60;0.70;;;;;;;2.99;70.87;98880.31;4752682;30;20069;-95
2023/01/02 04:26:12;;;;;;;3.67;0.90;;;;;;;2.98;70.99;98892.22;4776113;30;20044;-95
2023/01/02 04:28:39;;;;;;;0.82;0.65;;;;;;;2.40;70.99;98837.78;4781448;30;20561;-96
2023/01/02 04:31:18;;;;;;;3.13;0.80;;;;;;;2.87;70.64;98909.50;4749973;30;20051;-96
2023/01/02 04:33:57;;;;;;;1.27;0.75;;;;;;;2.47;70.36;98843.69;4769820;30;20128;-95
2023/01/02 04:36:24;;;;;;;2.33;0.82;;;;;;;2.24;69.51;98799.22;4746018;30;20536;-95
2023/01/02 04:38:50;;;;;;;2.47;0.80;;;;;;;2.41;69.93;98860.97;4774050;29;20056;-96
2023/01/02 04:41:42;;;;;;;1.27;0.70;;;;;;;2.34;69.45;98853.13;4748088;30;20118;-95
2023/01/02 04:44:08;;;;;;;0.85;0.77;;;;;;;2.18;70.06;98846.13;4750372;30;20044;-96
2023/01/02 04:46:35;;;;;;;0.90;0.63;;;;;;;1.97;70.00;98815.66;4754148;30;20048;-96
2023/01/02 04:49:01;;;;;;;1.23;0.90;;;;;;;2.01;69.78;98822.13;4738653;30;20036;-96
2023/01/02 04:51:55;;;;;;;4.55;0.75;;;;;;;2.70;70.24;98946.75;4741931;30;20102;-95
2023/01/02 04:54:23;;;;;;;1.30;0.82;;;;;;;1.90;70.16;98823.22;4735268;30;20044;-96
2023/01/02 04:57:06;;;;;;;0.98;0.52;;;;;;;1.78;70.94;98831.53;4742282;30;20056;-94
2023/01/02 04:59:32;;;;;;;0.95;0.70;;;;;;;2.26;70.69;98904.13;4758080;30;20040;-94
2023/01/02 05:01:59;;;;;;;0.82;0.77;;;;;;;2.27;71.24;98911.94;4743003;30;20039;-96
2023/01/02 05:04:25;;;;;;;1.83;1.03;;;;;;;2.23;71.00;98913.56;4747032;30;20059;-93
2023/01/02 05:06:52;;;;;;;1.38;0.80;;;;;;;1.82;70.78;98853.38;4749219;30;20327;-96
2023/01/02 05:09:18;;;;;;;3.00;0.82;;;;;;;1.95;70.37;98862.81;4730720;30;20052;-95
2023/01/02 05:11:45;;;;;;;0.95;0.80;;;;;;;1.83;70.48;98855.00;4731485;30;20056;-95
2023/01/02 05:14:11;;;;;;;1.65;0.73;;;;;;;2.05;69.98;98914.88;4736125;30;20049;-95
2023/01/02 05:16:40;;;;;;;1.65;1.17;;;;;;;2.09;69.91;98923.25;4764151;30;20049;-96
2023/01/02 05:19:08;;;;;;;1.10;0.60;;;;;;;2.06;69.65;98943.47;4774514;30;20048;-96
2023/01/02 05:24:22;;;;;;;2.30;0.65;;;;;;;2.05;68.98;98947.25;4751553;30;20116;-95
2023/01/02 05:26:48;;;;;;;;;;;;;;;2.45;69.12;99021.22;4758548;30;20049;-94
2023/01/02 05:29:14;;;;;;;2.30;0.73;;;;;;;1.95;69.19;98944.50;4770501;30;19914;-96
2023/01/02 05:31:40;;;;;;;1.95;0.85;;;;;;;1.60;68.88;98932.53;4767777;29;20083;-96
2023/01/02 05:34:12;;;;;;;0.82;0.80;;;;;;;1.76;68.52;98951.47;4740651;30;20120;-94
2023/01/02 05:36:38;;;;;;;2.38;0.90;;;;;;;1.86;68.23;98979.25;4726880;30;20051;-95
2023/01/02 05:39:28;;;;;;;0.87;0.60;;;;;;;2.16;67.88;99047.84;4718663;30;20134;-95
2023/01/02 05:41:56;;;;;;;1.13;0.80;;;;;;;1.90;67.90;99011.06;4755823;30;20535;-96
2023/01/02 05:44:25;;;;;;;2.80;0.70;;;;;;;1.79;68.57;98994.06;4750716;30;20064;-95
2023/01/02 05:46:52;;;;;;;1.63;0.63;;;;;;;1.73;67.99;98984.31;4757336;30;20164;-91
2023/01/02 05:49:19;;;;;;;1.33;0.80;;;;;;;2.25;67.88;99065.13;4780859;30;20032;-91
2023/01/02 05:51:48;;;;;;;0.63;0.60;;;;;;;2.03;67.43;99032.94;4764600;30;20064;-92
2023/01/02 05:54:14;;;;;;;1.92;0.90;;;;;;;1.82;67.62;99006.97;4736730;30;20032;-93
2023/01/02 05:56:41;;;;;;;2.08;0.60;;;;;;;2.24;68.05;99087.75;4738863;30;20066;-91
2023/01/02 05:59:08;;;;;;;0.60;0.60;;;;;;;1.79;67.56;99023.69;4751926;30;20056;-91
2023/01/02 06:01:35;;;;;;;0.75;0.60;;;;;;;1.84;67.29;99050.66;4710540;30;20507;-91
2023/01/02 06:04:01;;;;;;;2.72;1.10;;;;;;;2.06;66.63;99086.34;4732907;30;20052;-91
2023/01/02 06:06:38;;;;;;;4.20;0.90;;;;;;;1.84;66.06;99051.47;4737934;30;20064;-91
2023/01/02 06:09:07;;;;;;;1.02;0.73;;;;;;;1.84;65.79;99053.34;4700432;30;20048;-90
2023/01/02 06:11:35;;;;;;;1.42;0.75;;;;;;;2.05;65.59;99098.22;4721506;30;20495;-92
2023/01/02 06:14:01;;;;;;;5.38;0.73;;;;;;;1.86;65.92;99070.06;4743228;30;20092;-92
2023/01/02 06:16:27;;;;;;;0.70;0.70;;;;;;;2.02;65.55;99109.53;4735888;30;20041;-91
2023/01/02 06:18:54;;;;;;;1.13;0.75;;;;;;;1.59;65.50;99048.63;4725785;30;20529;-93
2023/01/02 06:21:21;;;;;;;2.05;0.77;;;;;;;1.87;65.67;99104.84;4716846;30;20578;-91
2023/01/02 06:23:52;;;;;;;2.03;0.70;;;;;;;1.99;64.30;99126.22;4754239;30;20048;-94
2023/01/02 06:26:19;;;;;;;0.85;0.60;;;;;;;2.01;64.44;99142.91;4735662;30;20337;-91
2023/01/02 06:28:48;;;;;;;1.80;0.70;;;;;;;1.86;64.52;99129.38;4723968;30;20036;-91
2023/01/02 06:31:16;;;;;;;1.35;0.70;;;;;;;2.06;64.87;99167.22;4750009;30;20151;-93
2023/01/02 06:33:43;;;;;;;1.08;0.80;;;;;;;1.43;63.98;99052.31;4745218;30;20056;-96
2023/01/02 06:36:16;;;;;;;1.80;0.80;;;;;;;1.88;64.62;99138.78;4769683;30;20056;-95
2023/01/02 06:38:47;;;;;;;1.83;0.88;;;;;;;1.81;64.51;99127.44;4748032;30;20044;-93
2023/01/02 06:41:14;;;;;;;2.83;0.90;;;;;;;1.62;64.71;99115.44;4737451;30;20060;-93
2023/01/02 06:43:48;;;;;;;3.25;0.95;;;;;;;2.08;64.69;99194.72;4708165;30;20116;-88
2023/01/02 06:46:15;;;;;;;2.08;0.80;;;;;;;2.11;65.16;99196.91;4729852;30;20065;-88
2023/01/02 06:48:43;;;;;;;1.10;0.80;;;;;;;1.61;65.12;99141.59;4716193;30;20619;-93
2023/01/02 06:51:15;;;;;;;2.60;0.80;;;;;;;1.80;64.56;99178.91;4738174;30;20048;-92
2023/01/02 06:53:43;;;;;;;1.20;0.70;;;;;;;1.74;65.14;99171.88;4723859;30;20525;-88
2023/01/02 06:56:09;;;;;;;;;;;;;;;2.05;64.68;99227.63;4727609;30;20177;-87
2023/01/02 06:58:36;;;;;;;1.40;0.70;;;;;;;1.98;64.54;99227.00;4714063;30;19982;-89
2023/01/02 07:01:14;;;;;;;2.15;0.90;;;;;;;1.73;64.45;99183.72;4701016;30;20432;-88
2023/01/02 07:03:40;;;;;;;;;;;;;;;2.05;64.59;99221.41;4736307;30;20048;-87
2023/01/02 07:06:08;;;;;;;10.50;2.60;;;;;;;1.97;64.59;99230.78;4740771;30;19956;-88
2023/01/02 07:08:35;;;;;;;3.10;0.80;;;;;;;1.79;64.33;99215.03;4719116;30;20642;-86
2023/01/02 07:11:14;;;;;;;3.25;0.82;;;;;;;2.05;63.67;99246.50;4725175;30;20060;-89
2023/01/02 07:13:42;;;;;;;3.45;0.95;;;;;;;1.96;64.13;99234.56;4720563;30;20139;-86
2023/01/02 07:16:12;;;;;;;3.15;0.80;;;;;;;1.87;63.85;99234.22;4695391;30;20136;-86
2023/01/02 07:18:38;;;;;;;1.20;0.75;;;;;;;2.04;64.03;99261.03;4720014;30;20048;-94
2023/01/02 07:21:07;;;;;;;5.20;1.10;;;;;;;1.87;63.37;99244.19;4736232;30;20147;-94
2023/01/02 07:23:33;;;;;;;1.75;0.93;;;;;;;1.86;63.66;99256.06;4747886;30;20049;-89
2023/01/02 07:26:01;;;;;;;2.20;0.90;;;;;;;2.00;62.61;99262.63;4735397;30;20423;-85
2023/01/02 07:28:28;;;;;;;2.70;0.90;;;;;;;2.05;62.32;99289.63;4718676;30;20052;-94
2023/01/02 07:30:59;;;;;;;1.52;1.00;;;;;;;1.62;62.94;99218.66;4709026;30;20072;-85
2023/01/02 07:33:28;;;;;;;2.60;0.70;;;;;;;2.05;62.27;99295.03;4737531;30;20068;-88
2023/01/02 07:35:58;;;;;;;1.50;0.85;;;;;;;1.77;61.46;99261.09;4735534;30;20059;-87
2023/01/02 07:38:25;;;;;;;4.35;1.00;;;;;;;1.64;61.72;99226.47;4738629;30;20083;-93
2023/01/02 07:40:51;;;;;;;3.63;0.90;;;;;;;1.87;61.40;99263.88;4737341;30;20064;-93
2023/01/02 07:43:17;;;;;;;3.20;0.80;;;;;;;1.58;60.63;99219.41;4752169;30;20052;-93
2023/01/02 07:45:43;;;;;;;4.80;0.90;;;;;;;2.15;60.62;99328.50;4721168;30;20094;-94
2023/01/02 07:48:09;;;;;;;2.60;0.98;;;;;;;1.96;59.61;99274.19;4727085;30;20303;-93
2023/01/02 07:50:36;;;;;;;3.13;0.80;;;;;;;1.48;60.12;99193.19;4746441;30;20044;-93
2023/01/02 07:53:02;;;;;;;3.73;0.80;;;;;;;1.41;59.52;99177.25;4748864;30;20062;-93
2023/01/02 07:55:32;;;;;;;2.75;0.80;;;;;;;2.23;59.22;99306.47;4782651;30;20062;-94
2023/01/02 07:57:58;;;;;;;5.20;0.90;;;;;;;1.70;59.04;99230.03;4780883;30;20062;-93
2023/01/02 08:00:25;;;;;;;1.60;0.80;;;;;;;1.83;58.89;99256.56;4780993;30;20091;-93
2023/01/02 08:02:53;;;;;;;4.90;1.02;;;;;;;1.37;58.68;99160.00;4765686;30;20052;-92
2023/01/02 08:05:21;;;;;;;1.95;0.95;;;;;;;1.79;57.74;99237.41;4763763;30;20066;-92
2023/01/02 08:07:47;;;;;;;4.05;1.40;;;;;;;2.04;57.89;99271.81;4749795;30;20059;-93
2023/01/02 08:10:13;;;;;;;3.40;0.80;;;;;;;2.05;57.14;99265.38;4777405;30;20414;-93
2023/01/02 08:12:40;;;;;;;;;;;;;;;2.32;56.89;99311.13;4755353;30;20051;-93
2023/01/02 08:15:06;;;;;;;1.75;0.98;;;;;;;1.59;56.29;99186.00;4745278;30;19932;-92
2023/01/02 08:17:33;;;;;;;1.42;0.80;;;;;;;2.30;56.92;99309.75;4732846;30;20032;-92
2023/01/02 08:19:59;;;;;;;3.03;0.73;;;;;;;1.68;55.75;99208.72;4775331;30;20052;-93
2023/01/02 08:22:25;;;;;;;3.80;1.23;;;;;;;1.93;55.91;99253.94;4754227;30;20025;-93
2023/01/02 08:24:52;;;;;;;4.93;0.88;;;;;;;1.83;56.46;99243.88;4763612;30;20048;-93
2023/01/02 08:27:19;;;;;;;2.92;0.90;;;;;;;1.64;56.20;99213.00;4761494;30;20044;-94
2023/01/02 08:29:45;;;;;;;3.58;0.90;;;;;;;1.93;56.66;99286.28;4756290;30;20063;-94
2023/01/02 08:32:11;;;;;;;2.92;1.10;;;;;;;2.28;56.19;99331.59;4728241;30;20052;-93
2023/01/02 08:34:38;;;;;;;4.43;1.33;;;;;;;2.42;55.33;99342.78;4722104;30;20115;-94
2023/01/02 08:37:04;;;;;;;4.75;1.00;;;;;;;1.87;54.94;99255.78;4744562;30;20039;-93
2023/01/02 08:39:31;;;;;;;4.50;0.85;;;;;;;2.15;55.19;99293.47;4761377;30;20048;-92
2023/01/02 08:41:58;;;;;;;0.80;0.50;;;;;;;1.95;54.78;99270.66;4760307;30;20039;-94
2023/01/02 08:44:24;;;;;;;2.88;1.10;;;;;;;2.03;54.88;99278.28;4730098;30;20039;-94
2023/01/02 08:46:52;;;;;;;2.05;0.98;;;;;;;2.09;54.80;99309.63;4782762;30;20430;-94
2023/01/02 08:49:18;;;;;;;2.05;0.93;;;;;;;2.21;54.57;99314.00;4746123;30;20040;-93
2023/01/02 08:51:48;;;;;;;2.63;1.00;;;;;;;1.72;54.78;99230.56;4763266;30;20056;-93
2023/01/02 08:54:14;;;;;;;1.73;0.88;;;;;;;1.78;55.09;99245.72;4760760;30;20514;-93
2023/01/02 08:56:41;;;;;;;4.68;1.00;;;;;;;2.41;54.60;99361.91;4737617;30;20052;-92
2023/01/02 08:59:11;;;;;;;2.47;0.50;;;;;;;1.77;53.05;99236.03;4762043;30;20036;-92
2023/01/02 09:01:39;;;;;;;2.53;0.90;;;;;;;1.67;54.18;99225.16;4761419;30;20156;-94
2023/01/02 09:04:07;;;;;;;4.88;0.80;;;;;;;1.79;54.49;99241.97;4774719;30;20051;-93
2023/01/02 09:06:35;;;;;;;2.15;0.80;;;;;;;1.75;53.74;99244.34;4760882;30;20096;-94
2023/01/02 09:09:03;;;;;;;1.65;0.80;;;;;;;2.23;53.85;99323.47;4775903;30;20056;-93
2023/01/02 09:11:54;;;;;;;3.45;0.88;;;;;;;1.88;53.91;99283.53;4762937;30;20044;-93
2023/01/02 09:14:21;;;;;;;4.97;1.33;;;;;;;2.26;53.42;99317.56;4761151;30;20130;-93
2023/01/02 09:16:48;;;;;;;3.58;1.20;;;;;;;2.02;53.86;99305.50;4743395;30;20558;-93
2023/01/02 09:19:15;;;;;;;2.05;1.13;;;;;;;2.17;53.29;99347.97;4771410;30;20047;-94
2023/01/02 09:21:41;;;;;;;4.30;0.90;;;;;;;1.97;52.68;99290.09;4782630;30;20052;-93
2023/01/02 09:24:08;;;;;;;17.00;1.15;;;;;;;1.75;52.67;99254.31;4770907;30;20294;-95
2023/01/02 09:26:37;;;;;;;4.25;1.80;;;;;;;2.34;53.57;99322.47;4768673;30;20024;-95
2023/01/02 09:29:04;;;;;;;2.38;1.02;;;;;;;2.68;52.64;99394.22;4753164;30;20047;-95
2023/01/02 09:31:31;;;;;;;2.03;1.00;;;;;;;1.99;52.22;99295.25;4758038;30;20051;-93
2023/01/02 09:34:00;;;;;;;3.35;1.00;;;;;;;1.95;52.73;99283.31;4768432;30;20051;-89
2023/01/02 09:36:26;;;;;;;4.55;1.20;;;;;;;2.67;53.02;99398.00;4752344;30;20082;-90
2023/01/02 09:38:57;;;;;;;1.77;0.90;;;;;;;2.60;52.88;99392.81;4760332;30;20083;-87
2023/01/02 09:41:46;;;;;;;6.35;1.30;;;;;;;2.47;52.93;99366.28;4775834;30;20056;-88
2023/01/02 09:44:17;;;;;;;2.70;1.00;;;;;;;2.48;52.76;99389.47;4743501;30;20047;-90
2023/01/02 09:47:07;;;;;;;1.75;1.00;;;;;;;2.70;52.98;99395.59;4745040;30;20049;-88
2023/01/02 09:49:53;;;;;;;5.18;1.10;;;;;;;2.75;52.80;99416.41;4766543;30;20043;-87
2023/01/02 09:52:50;;;;;;;2.22;1.20;;;;;;;2.73;51.96;99408.56;4766208;30;20112;-86
2023/01/02 09:55:31;;;;;;;;;;;;;;;2.69;52.62;99415.56;4794765;29;20590;-87
2023/01/02 09:58:35;;;;;;;4.82;1.40;;;;;;;2.67;52.85;99420.38;4764055;29;19974;-88
2023/01/02 10:01:02;;;;;;;6.70;1.02;;;;;;;2.66;53.22;99415.25;4763549;30;20047;-90
2023/01/02 10:03:45;;;;;;;1.08;0.88;;;;;;;2.62;53.23;99427.66;4778142;29;20046;-87
2023/01/02 10:06:20;;;;;;;2.47;0.80;;;;;;;2.59;53.37;99448.69;4742432;29;20039;-89
2023/01/02 10:08:55;;;;;;;0.90;0.80;;;;;;;2.57;53.92;99434.63;4757320;29;20039;-88
2023/01/02 10:11:39;;;;;;;3.63;1.02;;;;;;;2.62;53.73;99417.66;4757599;29;20068;-89
2023/01/02 10:14:20;;;;;;;4.80;1.42;;;;;;;2.39;53.32;99383.75;4746206;30;20047;-89
2023/01/02 10:16:50;;;;;;;3.35;0.95;;;;;;;2.54;53.61;99393.84;4762073;29;20472;-85
2023/01/02 10:19:47;;;;;;;6.40;2.10;;;;;;;2.34;53.09;99359.41;4772544;30;20047;-87
2023/01/02 10:22:22;;;;;;;3.35;0.90;;;;;;;2.39;53.27;99385.66;4737138;29;20051;-89
2023/01/02 10:25:14;;;;;;;2.75;1.08;;;;;;;2.28;53.62;99382.03;4777731;29;20066;-92
2023/01/02 10:27:52;;;;;;;3.70;1.20;;;;;;;2.41;53.67;99407.75;4765517;29;20039;-92
2023/01/02 10:30:17;;;;;;;;;;;;;;;2.69;53.66;99449.84;4750560;29;20053;-90
2023/01/02 10:33:07;;;;;;;5.77;1.17;;;;;;;2.49;53.71;99418.91;4763095;29;19925;-89
2023/01/02 10:35:43;;;;;;;2.38;1.25;;;;;;;2.46;53.64;99427.53;4753373;29;20043;-89
2023/01/02 10:38:12;;;;;;;3.38;1.10;;;;;;;2.27;53.19;99399.28;4776359;30;20050;-89
2023/01/02 10:40:41;;;;;;;2.60;1.30;;;;;;;2.35;52.85;99402.34;4796846;29;20035;-89
2023/01/02 10:43:11;;;;;;;4.88;1.45;;;;;;;2.30;53.88;99407.69;4800742;29;20049;-87
2023/01/02 10:45:37;;;;;;;2.63;1.17;;;;;;;2.41;52.71;99465.22;4791969;29;20091;-88
2023/01/02 10:48:04;;;;;;;2.38;1.02;;;;;;;2.45;53.63;99460.13;4800985;29;20068;-87
2023/01/02 10:50:37;;;;;;;3.53;0.90;;;;;;;2.56;54.21;99484.28;4778105;30;20039;-89
2023/01/02 10:53:20;;;;;;;3.58;1.00;;;;;;;2.15;53.32;99429.09;4765203;30;20081;-86
2023/01/02 10:55:47;;;;;;;1.65;0.88;;;;;;;2.19;54.28;99434.81;4792635;30;20048;-89
2023/01/02 10:58:23;;;;;;;3.88;1.15;;;;;;;2.11;54.63;99434.19;4757885;30;20060;-90
2023/01/02 11:00:51;;;;;;;2.58;1.05;;;;;;;2.06;54.34;99450.34;4762790;30;20062;-89
2023/01/02 11:03:24;;;;;;;4.47;1.20;;;;;;;2.20;54.64;99449.94;4794888;29;20047;-87
2023/01/02 11:05:53;;;;;;;2.70;1.02;;;;;;;2.49;54.61;99504.44;4738103;30;20058;-87
2023/01/02 11:08:22;;;;;;;3.78;1.27;;;;;;;2.36;54.40;99484.09;4734328;30;20138;-86
2023/01/02 11:10:54;;;;;;;3.60;1.10;;;;;;;2.06;55.07;99476.50;4742163;30;20063;-87
2023/01/02 11:13:21;;;;;;;1.85;1.08;;;;;;;2.45;54.58;99524.88;4741511;30;20708;-90
2023/01/02 11:15:49;;;;;;;5.37;1.43;;;;;;;2.34;54.81;99549.06;4749627;30;20063;-88
2023/01/02 11:18:21;;;;;;;2.40;1.05;;;;;;;2.32;54.62;99547.72;4730986;30;20146;-86
2023/01/02 11:20:52;;;;;;;0.73;0.65;;;;;;;1.91;54.60;99512.16;4725041;30;20650;-87
2023/01/02 11:23:23;;;;;;;3.20;1.10;;;;;;;1.79;55.19;99487.22;4756729;30;20048;-88
2023/01/02 11:25:50;;;;;;;3.67;1.10;;;;;;;2.24;55.10;99564.31;4741179;30;20047;-91
2023/01/02 11:28:22;;;;;;;1.98;1.15;;;;;;;1.91;55.27;99527.53;4750176;30;20047;-87
2023/01/02 11:30:53;;;;;;;4.90;1.20;;;;;;;1.84;55.04;99500.75;4751055;30;20066;-89
2023/01/02 11:33:28;;;;;;;2.35;1.00;;;;;;;1.89;56.35;99533.19;4752620;30;20043;-89
2023/01/02 11:36:04;;;;;;;1.55;1.00;;;;;;;2.16;55.19;99578.25;4724587;30;20040;-89
2023/01/02 11:38:52;;;;;;;3.60;1.00;;;;;;;2.08;56.20;99593.78;4722528;30;20450;-88
2023/01/02 11:44:24;;;;;;;3.05;1.00;;;;;;;2.13;55.65;99595.75;4777568;29;20501;-89
2023/01/02 11:46:52;;;;;;;2.70;1.08;;;;;;;1.94;55.09;99568.28;4771279;29;20047;-89
2023/01/02 11:49:19;;;;;;;;;;;;;;;2.01;55.59;99585.06;4782397;29;21795;-90
2023/01/02 11:51:54;;;;;;;2.13;1.00;;;;;;;2.06;55.74;99590.56;4759254;29;20252;-90
2023/01/02 11:54:26;;;;;;;2.42;1.10;;;;;;;1.87;55.85;99579.25;4774650;29;20442;-87
2023/01/02 11:56:52;;;;;;;4.55;1.20;;;;;;;1.72;55.80;99551.25;4762083;29;20047;-89
2023/01/02 11:59:23;;;;;;;13.23;4.38;;;;;;;1.96;55.86;99590.41;4765981;29;20108;-89
2023/01/02 12:02:19;;;;;;;2.95;0.90;;;;;;;1.90;56.65;99566.34;4759605;29;20038;-86
2023/01/02 12:04:47;;;;;;;6.03;1.10;;;;;;;2.10;55.70;99597.06;4797151;29;20039;-89
2023/01/02 12:07:41;;;;;;;5.03;1.60;;;;;;;2.13;55.82;99595.75;4777946;30;20040;-90
2023/01/02 12:10:17;;;;;;;2.58;1.10;;;;;;;2.11;56.30;99603.28;4782778;29;20070;-92
2023/01/02 12:13:01;;;;;;;13.93;3.78;;;;;;;2.20;56.20;99609.06;4735203;30;20075;-87